sensor_id;sensor_type;location;lat;lon;timestamp;P1;durP1;ratioP1;P2;durP2;ratioP2
10082;SDS011;5080;48.528;8.078;2023-04-25T00:00:25;0.70;;;0.70;;
10082;SDS011;5080;48.528;8.078;2023-04-25T00:02:52;0.77;;;0.70;;
10082;SDS011;5080;48.528;8.078;2023-04-25T00:05:20;0.93;;;0.80;;
10082;SDS011;5080;48.528;8.078;2023-04-25T00:07:48;0.80;;;0.80;;
10082;SDS011;5080;48.528;8.078;2023-04-25T00:10:15;0.73;;;0.73;;
10082;SDS011;5080;48.528;8.078;2023-04-25T00:12:43;0.70;;;0.70;;
10082;SDS011;5080;48.528;8.078;2023-04-25T00:15:11;0.70;;;0.70;;
10082;SDS011;5080;48.528;8.078;2023-04-25T00:17:38;0.98;;;0.98;;
10082;SDS011;5080;48.528;8.078;2023-04-25T00:20:05;1.10;;;1.10;;
10082;SDS011;5080;48.528;8.078;2023-04-25T00:22:34;0.80;;;0.80;;
10082;SDS011;5080;48.528;8.078;2023-04-25T00:25:02;0.80;;;0.80;;
10082;SDS011;5080;48.528;8.078;2023-04-25T00:27:29;0.80;;;0.80;;
10082;SDS011;5080;48.528;8.078;2023-04-25T00:29:57;0.90;;;0.90;;
10082;SDS011;5080;48.528;8.078;2023-04-25T00:32:24;0.80;;;0.80;;
10082;SDS011;5080;48.528;8.078;2023-04-25T00:34:51;0.93;;;0.93;;
10082;SDS011;5080;48.528;8.078;2023-04-25T00:37:18;0.90;;;0.90;;
10082;SDS011;5080;48.528;8.078;2023-04-25T00:39:45;0.80;;;0.80;;
10082;SDS011;5080;48.528;8.078;2023-04-25T00:42:12;0.80;;;0.80;;
10082;SDS011;5080;48.528;8.078;2023-04-25T00:44:39;1.00;;;1.00;;
10082;SDS011;5080;48.528;8.078;2023-04-25T00:47:08;1.00;;;1.00;;
10082;SDS011;5080;48.528;8.078;2023-04-25T00:49:37;1.10;;;1.10;;
10082;SDS011;5080;48.528;8.078;2023-04-25T00:52:04;1.07;;;0.97;;
10082;SDS011;5080;48.528;8.078;2023-04-25T00:54:31;0.90;;;0.90;;
10082;SDS011;5080;48.528;8.078;2023-04-25T00:56:58;0.93;;;0.93;;
10082;SDS011;5080;48.528;8.078;2023-04-25T00:59:26;0.80;;;0.80;;
10082;SDS011;5080;48.528;8.078;2023-04-25T01:01:54;1.03;;;1.00;;
10082;SDS011;5080;48.528;8.078;2023-04-25T01:04:23;0.90;;;0.90;;
10082;SDS011;5080;48.528;8.078;2023-04-25T01:06:50;1.03;;;1.03;;
10082;SDS011;5080;48.528;8.078;2023-04-25T01:09:17;0.90;;;0.90;;
10082;SDS011;5080;48.528;8.078;2023-04-25T01:11:44;0.90;;;0.90;;
10082;SDS011;5080;48.528;8.078;2023-04-25T01:14:11;0.90;;;0.90;;
10082;SDS011;5080;48.528;8.078;2023-04-25T01:16:38;1.00;;;1.00;;
10082;SDS011;5080;48.528;8.078;2023-04-25T01:19:06;0.90;;;0.90;;
10082;SDS011;5080;48.528;8.078;2023-04-25T01:21:38;0.90;;;0.90;;
10082;SDS011;5080;48.528;8.078;2023-04-25T01:24:05;0.80;;;0.80;;
10082;SDS011;5080;48.528;8.078;2023-04-25T01:26:32;0.80;;;0.80;;
10082;SDS011;5080;48.528;8.078;2023-04-25T01:29:01;0.90;;;0.90;;
10082;SDS011;5080;48.528;8.078;2023-04-25T01:31:28;1.17;;;1.07;;
10082;SDS011;5080;48.528;8.078;2023-04-25T01:33:56;0.80;;;0.80;;
10082;SDS011;5080;48.528;8.078;2023-04-25T01:36:23;0.93;;;0.80;;
10082;SDS011;5080;48.528;8.078;2023-04-25T01:38:51;0.73;;;0.73;;
10082;SDS011;5080;48.528;8.078;2023-04-25T01:41:18;1.00;;;1.00;;
10082;SDS011;5080;48.528;8.078;2023-04-25T01:43:45;1.30;;;0.93;;
10082;SDS011;5080;48.528;8.078;2023-04-25T01:46:12;1.00;;;1.00;;
10082;SDS011;5080;48.528;8.078;2023-04-25T01:48:39;1.10;;;1.00;;
10082;SDS011;5080;48.528;8.078;2023-04-25T01:51:06;1.03;;;1.03;;
10082;SDS011;5080;48.528;8.078;2023-04-25T01:53:32;0.80;;;0.80;;
10082;SDS011;5080;48.528;8.078;2023-04-25T01:56:01;0.97;;;0.93;;
10082;SDS011;5080;48.528;8.078;2023-04-25T01:58:28;1.00;;;0.97;;
10082;SDS011;5080;48.528;8.078;2023-04-25T02:00:55;0.87;;;0.87;;
10082;SDS011;5080;48.528;8.078;2023-04-25T02:03:22;0.90;;;0.90;;
10082;SDS011;5080;48.528;8.078;2023-04-25T02:05:49;0.90;;;0.90;;
10082;SDS011;5080;48.528;8.078;2023-04-25T02:08:16;0.60;;;0.60;;
10082;SDS011;5080;48.528;8.078;2023-04-25T02:10:43;0.90;;;0.87;;
10082;SDS011;5080;48.528;8.078;2023-04-25T02:13:11;0.80;;;0.80;;
10082;SDS011;5080;48.528;8.078;2023-04-25T02:15:38;0.80;;;0.80;;
10082;SDS011;5080;48.528;8.078;2023-04-25T02:18:06;0.80;;;0.80;;
10082;SDS011;5080;48.528;8.078;2023-04-25T02:20:33;0.80;;;0.80;;
10082;SDS011;5080;48.528;8.078;2023-04-25T02:22:59;0.80;;;0.80;;
10082;SDS011;5080;48.528;8.078;2023-04-25T02:25:26;0.60;;;0.60;;
10082;SDS011;5080;48.528;8.078;2023-04-25T02:27:53;0.80;;;0.80;;
10082;SDS011;5080;48.528;8.078;2023-04-25T02:30:21;0.90;;;0.90;;
10082;SDS011;5080;48.528;8.078;2023-04-25T02:32:48;0.93;;;0.93;;
10082;SDS011;5080;48.528;8.078;2023-04-25T02:35:15;0.90;;;0.90;;
10082;SDS011;5080;48.528;8.078;2023-04-25T02:37:42;1.00;;;0.90;;
10082;SDS011;5080;48.528;8.078;2023-04-25T02:40:09;0.80;;;0.80;;
10082;SDS011;5080;48.528;8.078;2023-04-25T02:42:36;1.00;;;1.00;;
10082;SDS011;5080;48.528;8.078;2023-04-25T02:45:03;1.00;;;1.00;;
10082;SDS011;5080;48.528;8.078;2023-04-25T02:47:32;1.07;;;1.07;;
10082;SDS011;5080;48.528;8.078;2023-04-25T02:49:59;0.90;;;0.90;;
10082;SDS011;5080;48.528;8.078;2023-04-25T02:52:26;1.00;;;1.00;;
10082;SDS011;5080;48.528;8.078;2023-04-25T02:54:52;1.00;;;1.00;;
10082;SDS011;5080;48.528;8.078;2023-04-25T02:57:19;0.70;;;0.70;;
10082;SDS011;5080;48.528;8.078;2023-04-25T02:59:46;1.07;;;1.07;;
10082;SDS011;5080;48.528;8.078;2023-04-25T03:02:13;0.90;;;0.90;;
10082;SDS011;5080;48.528;8.078;2023-04-25T03:04:41;0.90;;;0.90;;
10082;SDS011;5080;48.528;8.078;2023-04-25T03:07:08;0.93;;;0.90;;
10082;SDS011;5080;48.528;8.078;2023-04-25T03:09:35;0.80;;;0.80;;
10082;SDS011;5080;48.528;8.078;2023-04-25T03:12:02;1.20;;;1.10;;
10082;SDS011;5080;48.528;8.078;2023-04-25T03:14:29;0.93;;;0.93;;
10082;SDS011;5080;48.528;8.078;2023-04-25T03:16:56;1.20;;;1.10;;
10082;SDS011;5080;48.528;8.078;2023-04-25T03:19:22;1.10;;;1.10;;
10082;SDS011;5080;48.528;8.078;2023-04-25T03:21:51;1.00;;;1.00;;
10082;SDS011;5080;48.528;8.078;2023-04-25T03:24:18;1.40;;;1.30;;
10082;SDS011;5080;48.528;8.078;2023-04-25T03:26:45;1.00;;;1.00;;
10082;SDS011;5080;48.528;8.078;2023-04-25T03:29:12;1.10;;;1.00;;
10082;SDS011;5080;48.528;8.078;2023-04-25T03:31:39;1.10;;;1.10;;
10082;SDS011;5080;48.528;8.078;2023-04-25T03:34:05;0.80;;;0.80;;
10082;SDS011;5080;48.528;8.078;2023-04-25T03:36:32;0.93;;;0.93;;
10082;SDS011;5080;48.528;8.078;2023-04-25T03:39:00;1.30;;;1.20;;
10082;SDS011;5080;48.528;8.078;2023-04-25T03:41:27;1.10;;;1.10;;
10082;SDS011;5080;48.528;8.078;2023-04-25T03:43:54;1.20;;;1.10;;
10082;SDS011;5080;48.528;8.078;2023-04-25T03:46:21;1.20;;;1.17;;
10082;SDS011;5080;48.528;8.078;2023-04-25T03:48:48;0.93;;;0.93;;
10082;SDS011;5080;48.528;8.078;2023-04-25T03:51:15;1.10;;;1.10;;
10082;SDS011;5080;48.528;8.078;2023-04-25T03:53:42;1.03;;;1.03;;
10082;SDS011;5080;48.528;8.078;2023-04-25T03:56:10;1.20;;;1.20;;
10082;SDS011;5080;48.528;8.078;2023-04-25T03:58:36;1.10;;;1.10;;
10082;SDS011;5080;48.528;8.078;2023-04-25T04:01:03;1.17;;;1.17;;
10082;SDS011;5080;48.528;8.078;2023-04-25T04:03:32;1.30;;;1.20;;
10082;SDS011;5080;48.528;8.078;2023-04-25T04:06:00;1.30;;;1.20;;
10082;SDS011;5080;48.528;8.078;2023-04-25T04:08:27;3.37;;;1.20;;
10082;SDS011;5080;48.528;8.078;2023-04-25T04:10:53;1.00;;;1.00;;
10082;SDS011;5080;48.528;8.078;2023-04-25T04:13:21;1.10;;;1.10;;
10082;SDS011;5080;48.528;8.078;2023-04-25T04:15:48;0.90;;;0.90;;
10082;SDS011;5080;48.528;8.078;2023-04-25T04:18:15;1.10;;;1.10;;
10082;SDS011;5080;48.528;8.078;2023-04-25T04:20:42;0.97;;;0.97;;
10082;SDS011;5080;48.528;8.078;2023-04-25T04:23:09;1.00;;;1.00;;
10082;SDS011;5080;48.528;8.078;2023-04-25T04:25:36;1.10;;;1.10;;
10082;SDS011;5080;48.528;8.078;2023-04-25T04:28:04;1.00;;;1.00;;
10082;SDS011;5080;48.528;8.078;2023-04-25T04:30:33;1.40;;;1.30;;
10082;SDS011;5080;48.528;8.078;2023-04-25T04:33:02;1.40;;;1.30;;
10082;SDS011;5080;48.528;8.078;2023-04-25T04:35:29;1.50;;;1.40;;
10082;SDS011;5080;48.528;8.078;2023-04-25T04:37:56;1.20;;;1.20;;
10082;SDS011;5080;48.528;8.078;2023-04-25T04:40:23;1.07;;;1.07;;
10082;SDS011;5080;48.528;8.078;2023-04-25T04:42:50;0.97;;;0.97;;
10082;SDS011;5080;48.528;8.078;2023-04-25T04:45:18;0.90;;;0.90;;
10082;SDS011;5080;48.528;8.078;2023-04-25T04:47:46;1.43;;;1.33;;
10082;SDS011;5080;48.528;8.078;2023-04-25T04:50:14;1.40;;;1.30;;
10082;SDS011;5080;48.528;8.078;2023-04-25T04:52:41;1.07;;;1.07;;
10082;SDS011;5080;48.528;8.078;2023-04-25T04:55:08;1.03;;;1.03;;
10082;SDS011;5080;48.528;8.078;2023-04-25T04:57:35;1.00;;;1.00;;
10082;SDS011;5080;48.528;8.078;2023-04-25T05:00:04;1.00;;;1.00;;
10082;SDS011;5080;48.528;8.078;2023-04-25T05:02:35;0.87;;;0.87;;
10082;SDS011;5080;48.528;8.078;2023-04-25T05:05:04;1.00;;;1.00;;
10082;SDS011;5080;48.528;8.078;2023-04-25T05:07:32;1.00;;;1.00;;
10082;SDS011;5080;48.528;8.078;2023-04-25T05:09:59;1.20;;;1.10;;
10082;SDS011;5080;48.528;8.078;2023-04-25T05:12:26;0.90;;;0.90;;
10082;SDS011;5080;48.528;8.078;2023-04-25T05:14:53;1.10;;;1.10;;
10082;SDS011;5080;48.528;8.078;2023-04-25T05:17:20;1.00;;;1.00;;
10082;SDS011;5080;48.528;8.078;2023-04-25T05:19:46;0.90;;;0.90;;
10082;SDS011;5080;48.528;8.078;2023-04-25T05:22:15;1.10;;;1.10;;
10082;SDS011;5080;48.528;8.078;2023-04-25T05:24:42;0.97;;;0.97;;
10082;SDS011;5080;48.528;8.078;2023-04-25T05:27:09;0.90;;;0.90;;
10082;SDS011;5080;48.528;8.078;2023-04-25T05:29:36;1.10;;;1.10;;
10082;SDS011;5080;48.528;8.078;2023-04-25T05:32:02;1.00;;;1.00;;
10082;SDS011;5080;48.528;8.078;2023-04-25T05:34:30;0.70;;;0.70;;
10082;SDS011;5080;48.528;8.078;2023-04-25T05:36:57;0.80;;;0.80;;
10082;SDS011;5080;48.528;8.078;2023-04-25T05:39:25;1.03;;;1.03;;
10082;SDS011;5080;48.528;8.078;2023-04-25T05:41:52;0.80;;;0.80;;
10082;SDS011;5080;48.528;8.078;2023-04-25T05:44:19;1.73;;;0.90;;
10082;SDS011;5080;48.528;8.078;2023-04-25T05:46:45;0.90;;;0.90;;
10082;SDS011;5080;48.528;8.078;2023-04-25T05:49:12;0.90;;;0.90;;
10082;SDS011;5080;48.528;8.078;2023-04-25T05:51:39;0.87;;;0.87;;
10082;SDS011;5080;48.528;8.078;2023-04-25T05:54:06;0.90;;;0.90;;
10082;SDS011;5080;48.528;8.078;2023-04-25T05:56:34;0.70;;;0.70;;
10082;SDS011;5080;48.528;8.078;2023-04-25T05:59:01;1.00;;;1.00;;
10082;SDS011;5080;48.528;8.078;2023-04-25T06:01:28;0.75;;;0.75;;
10082;SDS011;5080;48.528;8.078;2023-04-25T06:03:55;1.13;;;1.10;;
10082;SDS011;5080;48.528;8.078;2023-04-25T06:06:21;0.70;;;0.70;;
10082;SDS011;5080;48.528;8.078;2023-04-25T06:08:48;0.83;;;0.83;;
10082;SDS011;5080;48.528;8.078;2023-04-25T06:11:15;0.80;;;0.80;;
10082;SDS011;5080;48.528;8.078;2023-04-25T06:13:43;0.77;;;0.77;;
10082;SDS011;5080;48.528;8.078;2023-04-25T06:16:10;0.90;;;0.90;;
10082;SDS011;5080;48.528;8.078;2023-04-25T06:18:37;0.70;;;0.70;;
10082;SDS011;5080;48.528;8.078;2023-04-25T06:21:04;0.90;;;0.90;;
10082;SDS011;5080;48.528;8.078;2023-04-25T06:23:31;0.90;;;0.90;;
10082;SDS011;5080;48.528;8.078;2023-04-25T06:25:58;0.77;;;0.77;;
10082;SDS011;5080;48.528;8.078;2023-04-25T06:28:25;1.00;;;1.00;;
10082;SDS011;5080;48.528;8.078;2023-04-25T06:30:53;0.93;;;0.93;;
10082;SDS011;5080;48.528;8.078;2023-04-25T06:33:20;1.10;;;1.10;;
10082;SDS011;5080;48.528;8.078;2023-04-25T06:35:47;1.33;;;1.23;;
10082;SDS011;5080;48.528;8.078;2023-04-25T06:38:14;1.27;;;1.17;;
10082;SDS011;5080;48.528;8.078;2023-04-25T06:40:41;1.30;;;1.20;;
10082;SDS011;5080;48.528;8.078;2023-04-25T06:43:08;1.30;;;1.30;;
10082;SDS011;5080;48.528;8.078;2023-04-25T06:45:35;1.23;;;1.20;;
10082;SDS011;5080;48.528;8.078;2023-04-25T06:48:03;1.33;;;1.20;;
10082;SDS011;5080;48.528;8.078;2023-04-25T06:50:30;1.10;;;1.10;;
10082;SDS011;5080;48.528;8.078;2023-04-25T06:52:57;1.10;;;1.10;;
10082;SDS011;5080;48.528;8.078;2023-04-25T06:55:24;1.43;;;1.00;;
10082;SDS011;5080;48.528;8.078;2023-04-25T06:57:51;1.00;;;1.00;;
10082;SDS011;5080;48.528;8.078;2023-04-25T07:00:18;1.10;;;1.10;;
10082;SDS011;5080;48.528;8.078;2023-04-25T07:02:45;0.90;;;0.90;;
10082;SDS011;5080;48.528;8.078;2023-04-25T07:05:13;1.10;;;1.10;;
10082;SDS011;5080;48.528;8.078;2023-04-25T07:07:40;1.20;;;1.20;;
10082;SDS011;5080;48.528;8.078;2023-04-25T07:10:07;1.33;;;1.23;;
10082;SDS011;5080;48.528;8.078;2023-04-25T07:12:34;1.23;;;1.23;;
10082;SDS011;5080;48.528;8.078;2023-04-25T07:15:01;1.48;;;1.38;;
10082;SDS011;5080;48.528;8.078;2023-04-25T07:17:31;1.30;;;1.30;;
10082;SDS011;5080;48.528;8.078;2023-04-25T07:19:59;1.30;;;1.30;;
10082;SDS011;5080;48.528;8.078;2023-04-25T07:22:27;1.23;;;1.23;;
10082;SDS011;5080;48.528;8.078;2023-04-25T07:24:53;1.23;;;1.23;;
10082;SDS011;5080;48.528;8.078;2023-04-25T07:27:21;1.00;;;1.00;;
10082;SDS011;5080;48.528;8.078;2023-04-25T07:29:47;1.00;;;1.00;;
10082;SDS011;5080;48.528;8.078;2023-04-25T07:32:14;1.27;;;1.27;;
10082;SDS011;5080;48.528;8.078;2023-04-25T07:34:41;1.00;;;1.00;;
10082;SDS011;5080;48.528;8.078;2023-04-25T07:37:08;1.00;;;1.00;;
10082;SDS011;5080;48.528;8.078;2023-04-25T07:39:36;0.80;;;0.80;;
10082;SDS011;5080;48.528;8.078;2023-04-25T07:42:03;1.63;;;0.90;;
10082;SDS011;5080;48.528;8.078;2023-04-25T07:44:32;0.80;;;0.80;;
10082;SDS011;5080;48.528;8.078;2023-04-25T07:47:03;0.80;;;0.80;;
10082;SDS011;5080;48.528;8.078;2023-04-25T07:49:31;0.57;;;0.57;;
10082;SDS011;5080;48.528;8.078;2023-04-25T07:51:58;0.67;;;0.67;;
10082;SDS011;5080;48.528;8.078;2023-04-25T07:54:25;0.40;;;0.40;;
10082;SDS011;5080;48.528;8.078;2023-04-25T07:56:54;0.40;;;0.40;;
10082;SDS011;5080;48.528;8.078;2023-04-25T07:59:20;0.30;;;0.30;;
10082;SDS011;5080;48.528;8.078;2023-04-25T08:01:47;0.40;;;0.40;;
10082;SDS011;5080;48.528;8.078;2023-04-25T08:04:15;0.33;;;0.33;;
10082;SDS011;5080;48.528;8.078;2023-04-25T08:06:41;0.40;;;0.40;;
10082;SDS011;5080;48.528;8.078;2023-04-25T08:09:09;0.30;;;0.30;;
10082;SDS011;5080;48.528;8.078;2023-04-25T08:11:35;0.80;;;0.80;;
10082;SDS011;5080;48.528;8.078;2023-04-25T08:14:04;0.40;;;0.40;;
10082;SDS011;5080;48.528;8.078;2023-04-25T08:16:31;0.20;;;0.20;;
10082;SDS011;5080;48.528;8.078;2023-04-25T08:18:58;0.30;;;0.30;;
10082;SDS011;5080;48.528;8.078;2023-04-25T08:21:26;0.40;;;0.40;;
10082;SDS011;5080;48.528;8.078;2023-04-25T08:23:53;0.30;;;0.30;;
10082;SDS011;5080;48.528;8.078;2023-04-25T08:26:19;0.40;;;0.40;;
10082;SDS011;5080;48.528;8.078;2023-04-25T08:28:46;0.45;;;0.45;;
10082;SDS011;5080;48.528;8.078;2023-04-25T08:31:14;0.70;;;0.70;;
10082;SDS011;5080;48.528;8.078;2023-04-25T08:33:41;0.70;;;0.70;;
10082;SDS011;5080;48.528;8.078;2023-04-25T08:36:08;0.40;;;0.40;;
10082;SDS011;5080;48.528;8.078;2023-04-25T08:38:35;0.40;;;0.40;;
10082;SDS011;5080;48.528;8.078;2023-04-25T08:41:02;0.30;;;0.30;;
10082;SDS011;5080;48.528;8.078;2023-04-25T08:43:31;0.40;;;0.40;;
10082;SDS011;5080;48.528;8.078;2023-04-25T08:45:59;0.30;;;0.30;;
10082;SDS011;5080;48.528;8.078;2023-04-25T08:48:28;0.30;;;0.30;;
10082;SDS011;5080;48.528;8.078;2023-04-25T08:50:58;0.47;;;0.47;;
10082;SDS011;5080;48.528;8.078;2023-04-25T08:53:28;0.30;;;0.30;;
10082;SDS011;5080;48.528;8.078;2023-04-25T08:55:56;0.60;;;0.60;;
10082;SDS011;5080;48.528;8.078;2023-04-25T08:58:26;0.40;;;0.40;;
10082;SDS011;5080;48.528;8.078;2023-04-25T09:00:54;0.30;;;0.30;;
10082;SDS011;5080;48.528;8.078;2023-04-25T09:03:21;0.53;;;0.53;;
10082;SDS011;5080;48.528;8.078;2023-04-25T09:05:49;0.50;;;0.50;;
10082;SDS011;5080;48.528;8.078;2023-04-25T09:08:17;0.70;;;0.70;;
10082;SDS011;5080;48.528;8.078;2023-04-25T09:10:44;0.30;;;0.30;;
10082;SDS011;5080;48.528;8.078;2023-04-25T09:13:12;0.33;;;0.33;;
10082;SDS011;5080;48.528;8.078;2023-04-25T09:15:46;0.40;;;0.40;;
10082;SDS011;5080;48.528;8.078;2023-04-25T09:18:21;0.40;;;0.40;;
10082;SDS011;5080;48.528;8.078;2023-04-25T09:20:51;0.40;;;0.40;;
10082;SDS011;5080;48.528;8.078;2023-04-25T09:23:19;0.40;;;0.40;;
10082;SDS011;5080;48.528;8.078;2023-04-25T09:25:47;0.43;;;0.43;;
10082;SDS011;5080;48.528;8.078;2023-04-25T09:28:14;3.17;;;1.40;;
10082;SDS011;5080;48.528;8.078;2023-04-25T09:30:41;2.03;;;1.60;;
10082;SDS011;5080;48.528;8.078;2023-04-25T09:33:09;1.00;;;1.00;;
10082;SDS011;5080;48.528;8.078;2023-04-25T09:35:36;2.05;;;0.73;;
10082;SDS011;5080;48.528;8.078;2023-04-25T09:38:09;3.57;;;1.50;;
10082;SDS011;5080;48.528;8.078;2023-04-25T09:40:41;1.43;;;0.80;;
10082;SDS011;5080;48.528;8.078;2023-04-25T09:43:14;0.70;;;0.70;;
10082;SDS011;5080;48.528;8.078;2023-04-25T09:45:46;0.50;;;0.50;;
10082;SDS011;5080;48.528;8.078;2023-04-25T09:48:16;0.40;;;0.40;;
10082;SDS011;5080;48.528;8.078;2023-04-25T09:50:44;0.70;;;0.70;;
10082;SDS011;5080;48.528;8.078;2023-04-25T09:53:13;0.30;;;0.30;;
10082;SDS011;5080;48.528;8.078;2023-04-25T09:55:39;0.60;;;0.60;;
10082;SDS011;5080;48.528;8.078;2023-04-25T09:58:09;0.97;;;0.70;;
10082;SDS011;5080;48.528;8.078;2023-04-25T10:00:37;0.50;;;0.50;;
10082;SDS011;5080;48.528;8.078;2023-04-25T10:03:04;0.30;;;0.30;;
10082;SDS011;5080;48.528;8.078;2023-04-25T10:05:32;0.50;;;0.50;;
10082;SDS011;5080;48.528;8.078;2023-04-25T10:08:03;0.40;;;0.40;;
10082;SDS011;5080;48.528;8.078;2023-04-25T10:10:31;0.30;;;0.30;;
10082;SDS011;5080;48.528;8.078;2023-04-25T10:13:02;0.30;;;0.30;;
10082;SDS011;5080;48.528;8.078;2023-04-25T10:15:30;0.30;;;0.30;;
10082;SDS011;5080;48.528;8.078;2023-04-25T10:18:00;0.30;;;0.30;;
10082;SDS011;5080;48.528;8.078;2023-04-25T10:20:27;0.40;;;0.40;;
10082;SDS011;5080;48.528;8.078;2023-04-25T10:22:55;0.20;;;0.20;;
10082;SDS011;5080;48.528;8.078;2023-04-25T10:25:28;0.30;;;0.30;;
10082;SDS011;5080;48.528;8.078;2023-04-25T10:27:57;0.37;;;0.37;;
10082;SDS011;5080;48.528;8.078;2023-04-25T10:30:26;0.40;;;0.40;;
10082;SDS011;5080;48.528;8.078;2023-04-25T10:32:54;0.20;;;0.20;;
10082;SDS011;5080;48.528;8.078;2023-04-25T10:35:24;0.47;;;0.47;;
10082;SDS011;5080;48.528;8.078;2023-04-25T10:37:59;0.20;;;0.20;;
10082;SDS011;5080;48.528;8.078;2023-04-25T10:40:28;0.30;;;0.30;;
10082;SDS011;5080;48.528;8.078;2023-04-25T10:43:32;0.40;;;0.40;;
10082;SDS011;5080;48.528;8.078;2023-04-25T10:46:01;0.40;;;0.40;;
10082;SDS011;5080;48.528;8.078;2023-04-25T10:48:29;0.50;;;0.50;;
10082;SDS011;5080;48.528;8.078;2023-04-25T10:51:09;0.30;;;0.30;;
10082;SDS011;5080;48.528;8.078;2023-04-25T10:53:36;0.83;;;0.30;;
10082;SDS011;5080;48.528;8.078;2023-04-25T10:56:09;0.30;;;0.30;;
10082;SDS011;5080;48.528;8.078;2023-04-25T10:58:42;1.13;;;0.30;;
10082;SDS011;5080;48.528;8.078;2023-04-25T11:01:10;0.30;;;0.30;;
10082;SDS011;5080;48.528;8.078;2023-04-25T11:03:39;0.30;;;0.30;;
10082;SDS011;5080;48.528;8.078;2023-04-25T11:06:07;0.37;;;0.37;;
10082;SDS011;5080;48.528;8.078;2023-04-25T11:08:48;0.30;;;0.30;;
10082;SDS011;5080;48.528;8.078;2023-04-25T11:11:16;0.10;;;0.10;;
10082;SDS011;5080;48.528;8.078;2023-04-25T11:13:46;0.40;;;0.40;;
10082;SDS011;5080;48.528;8.078;2023-04-25T11:16:14;0.20;;;0.20;;
10082;SDS011;5080;48.528;8.078;2023-04-25T11:18:41;0.27;;;0.27;;
10082;SDS011;5080;48.528;8.078;2023-04-25T11:21:08;0.40;;;0.40;;
10082;SDS011;5080;48.528;8.078;2023-04-25T11:23:35;0.30;;;0.30;;
10082;SDS011;5080;48.528;8.078;2023-04-25T11:26:02;0.30;;;0.30;;
10082;SDS011;5080;48.528;8.078;2023-04-25T11:28:29;0.37;;;0.30;;
10082;SDS011;5080;48.528;8.078;2023-04-25T11:30:57;0.30;;;0.30;;
10082;SDS011;5080;48.528;8.078;2023-04-25T11:33:25;0.33;;;0.33;;
10082;SDS011;5080;48.528;8.078;2023-04-25T11:35:53;0.30;;;0.30;;
10082;SDS011;5080;48.528;8.078;2023-04-25T11:38:21;0.30;;;0.30;;
10082;SDS011;5080;48.528;8.078;2023-04-25T11:40:51;0.30;;;0.30;;
10082;SDS011;5080;48.528;8.078;2023-04-25T11:43:20;0.20;;;0.20;;
10082;SDS011;5080;48.528;8.078;2023-04-25T11:45:47;0.40;;;0.40;;
10082;SDS011;5080;48.528;8.078;2023-04-25T11:48:16;0.37;;;0.37;;
10082;SDS011;5080;48.528;8.078;2023-04-25T11:50:43;0.20;;;0.20;;
10082;SDS011;5080;48.528;8.078;2023-04-25T11:53:10;0.30;;;0.30;;
10082;SDS011;5080;48.528;8.078;2023-04-25T11:55:38;0.50;;;0.50;;
10082;SDS011;5080;48.528;8.078;2023-04-25T11:58:05;0.27;;;0.27;;
10082;SDS011;5080;48.528;8.078;2023-04-25T12:00:33;0.33;;;0.33;;
10082;SDS011;5080;48.528;8.078;2023-04-25T12:03:00;0.40;;;0.40;;
10082;SDS011;5080;48.528;8.078;2023-04-25T12:05:29;0.37;;;0.37;;
10082;SDS011;5080;48.528;8.078;2023-04-25T12:07:58;0.30;;;0.30;;
10082;SDS011;5080;48.528;8.078;2023-04-25T12:10:37;0.43;;;0.43;;
10082;SDS011;5080;48.528;8.078;2023-04-25T12:13:17;0.30;;;0.30;;
10082;SDS011;5080;48.528;8.078;2023-04-25T12:15:47;0.50;;;0.50;;
10082;SDS011;5080;48.528;8.078;2023-04-25T12:18:14;0.57;;;0.57;;
10082;SDS011;5080;48.528;8.078;2023-04-25T12:20:46;0.50;;;0.50;;
10082;SDS011;5080;48.528;8.078;2023-04-25T12:23:12;0.47;;;0.47;;
10082;SDS011;5080;48.528;8.078;2023-04-25T12:25:40;0.47;;;0.47;;
10082;SDS011;5080;48.528;8.078;2023-04-25T12:28:09;0.77;;;0.77;;
10082;SDS011;5080;48.528;8.078;2023-04-25T12:30:52;0.47;;;0.47;;
10082;SDS011;5080;48.528;8.078;2023-04-25T12:33:22;0.53;;;0.53;;
10082;SDS011;5080;48.528;8.078;2023-04-25T12:35:50;0.70;;;0.70;;
10082;SDS011;5080;48.528;8.078;2023-04-25T12:38:21;0.50;;;0.50;;
10082;SDS011;5080;48.528;8.078;2023-04-25T12:40:49;0.60;;;0.60;;
10082;SDS011;5080;48.528;8.078;2023-04-25T12:43:16;0.67;;;0.67;;
10082;SDS011;5080;48.528;8.078;2023-04-25T12:45:43;0.40;;;0.40;;
10082;SDS011;5080;48.528;8.078;2023-04-25T12:48:10;0.73;;;0.70;;
10082;SDS011;5080;48.528;8.078;2023-04-25T12:50:37;0.73;;;0.73;;
10082;SDS011;5080;48.528;8.078;2023-04-25T12:53:05;0.60;;;0.60;;
10082;SDS011;5080;48.528;8.078;2023-04-25T12:55:32;0.80;;;0.80;;
10082;SDS011;5080;48.528;8.078;2023-04-25T12:57:59;0.70;;;0.70;;
10082;SDS011;5080;48.528;8.078;2023-04-25T13:00:26;0.60;;;0.60;;
10082;SDS011;5080;48.528;8.078;2023-04-25T13:02:53;0.63;;;0.63;;
10082;SDS011;5080;48.528;8.078;2023-04-25T13:05:19;1.10;;;1.00;;
10082;SDS011;5080;48.528;8.078;2023-04-25T13:07:46;0.73;;;0.73;;
10082;SDS011;5080;48.528;8.078;2023-04-25T13:10:15;0.93;;;0.93;;
10082;SDS011;5080;48.528;8.078;2023-04-25T13:12:42;0.60;;;0.60;;
10082;SDS011;5080;48.528;8.078;2023-04-25T13:15:10;0.80;;;0.80;;
10082;SDS011;5080;48.528;8.078;2023-04-25T13:17:37;1.00;;;0.90;;
10082;SDS011;5080;48.528;8.078;2023-04-25T13:20:05;0.63;;;0.63;;
10082;SDS011;5080;48.528;8.078;2023-04-25T13:22:34;0.53;;;0.53;;
10082;SDS011;5080;48.528;8.078;2023-04-25T13:25:02;0.40;;;0.40;;
10082;SDS011;5080;48.528;8.078;2023-04-25T13:27:31;0.63;;;0.63;;
10082;SDS011;5080;48.528;8.078;2023-04-25T13:29:59;0.30;;;0.30;;
10082;SDS011;5080;48.528;8.078;2023-04-25T13:32:26;0.57;;;0.57;;
10082;SDS011;5080;48.528;8.078;2023-04-25T13:34:53;0.50;;;0.50;;
10082;SDS011;5080;48.528;8.078;2023-04-25T13:37:20;0.53;;;0.53;;
10082;SDS011;5080;48.528;8.078;2023-04-25T13:39:49;0.47;;;0.47;;
10082;SDS011;5080;48.528;8.078;2023-04-25T13:42:16;0.70;;;0.70;;
10082;SDS011;5080;48.528;8.078;2023-04-25T13:44:44;0.50;;;0.50;;
10082;SDS011;5080;48.528;8.078;2023-04-25T13:47:11;0.47;;;0.47;;
10082;SDS011;5080;48.528;8.078;2023-04-25T13:49:37;0.87;;;0.87;;
10082;SDS011;5080;48.528;8.078;2023-04-25T13:52:04;0.80;;;0.80;;
10082;SDS011;5080;48.528;8.078;2023-04-25T13:54:31;0.90;;;0.90;;
10082;SDS011;5080;48.528;8.078;2023-04-25T13:56:58;0.82;;;0.82;;
10082;SDS011;5080;48.528;8.078;2023-04-25T13:59:25;0.90;;;0.90;;
10082;SDS011;5080;48.528;8.078;2023-04-25T14:01:53;0.70;;;0.70;;
10082;SDS011;5080;48.528;8.078;2023-04-25T14:04:20;0.60;;;0.60;;
10082;SDS011;5080;48.528;8.078;2023-04-25T14:06:47;0.70;;;0.70;;
10082;SDS011;5080;48.528;8.078;2023-04-25T14:09:14;0.50;;;0.50;;
10082;SDS011;5080;48.528;8.078;2023-04-25T14:11:40;0.50;;;0.50;;
10082;SDS011;5080;48.528;8.078;2023-04-25T14:14:07;0.63;;;0.63;;
10082;SDS011;5080;48.528;8.078;2023-04-25T14:16:34;0.50;;;0.50;;
10082;SDS011;5080;48.528;8.078;2023-04-25T14:19:02;0.50;;;0.50;;
10082;SDS011;5080;48.528;8.078;2023-04-25T14:21:29;0.43;;;0.43;;
10082;SDS011;5080;48.528;8.078;2023-04-25T14:23:57;0.40;;;0.40;;
10082;SDS011;5080;48.528;8.078;2023-04-25T14:26:24;0.63;;;0.63;;
10082;SDS011;5080;48.528;8.078;2023-04-25T14:28:51;0.50;;;0.50;;
10082;SDS011;5080;48.528;8.078;2023-04-25T14:31:18;0.47;;;0.47;;
10082;SDS011;5080;48.528;8.078;2023-04-25T14:33:46;0.57;;;0.57;;
10082;SDS011;5080;48.528;8.078;2023-04-25T14:36:14;0.63;;;0.63;;
10082;SDS011;5080;48.528;8.078;2023-04-25T14:38:41;0.60;;;0.60;;
10082;SDS011;5080;48.528;8.078;2023-04-25T14:41:08;0.53;;;0.53;;
10082;SDS011;5080;48.528;8.078;2023-04-25T14:43:35;0.50;;;0.50;;
10082;SDS011;5080;48.528;8.078;2023-04-25T14:46:02;0.50;;;0.50;;
10082;SDS011;5080;48.528;8.078;2023-04-25T14:48:29;0.50;;;0.50;;
10082;SDS011;5080;48.528;8.078;2023-04-25T14:50:56;0.40;;;0.40;;
10082;SDS011;5080;48.528;8.078;2023-04-25T14:53:24;0.60;;;0.60;;
10082;SDS011;5080;48.528;8.078;2023-04-25T14:55:51;0.43;;;0.43;;
10082;SDS011;5080;48.528;8.078;2023-04-25T14:58:18;0.40;;;0.40;;
10082;SDS011;5080;48.528;8.078;2023-04-25T15:00:46;0.50;;;0.50;;
10082;SDS011;5080;48.528;8.078;2023-04-25T15:03:13;0.30;;;0.30;;